PWSweather.com
Personal Weather Stations
Station Observations
KMILAPEE3
Lapeer Michigan, Lapeer, MI 48446

Lapeer MichiganLapeer, MI 48446

Lat: 43.057, Lon: -83.362

Elevation: 897

Station Type: Oregon Scientific WMR-968

Latest ConditionsUpdated 2:34:07 AM EDT Monday, Aug 3, 2015
Currently Today's Max Today's Min Today's Average
Temperature 61.9°F16.6°C 62.1°F16.7°C 61.2°F16.2°C 61.7°F16.5°C
Dew Point 59.0°F15.0°C 59.0°F15.0°C 55.5°F13.1°C 57.6°F14.2°C
Winds Calm Calm 16.1 mph SSE25.9 kmh SSE - 5.8 mph 9.3 kmh
Wind Gusts 4.5 mph7.2 kmh 25.2 mph40.6 kmh - -
Humidity 90% 90% 81% 86%
Pressure 28.73 in972.9 mb 28.73 in972.9 mb 28.67 in970.9 mb -
Precipitation - 0.12 in3.0 mm - -
Hour Temp Dew Point Humidity Winds Wind Gusts Pressure Precip Precip Rate Daily Precip Total
02:34 AM 61.9°F16.6°C 59.0°F15.0°C 90% Calm Calm 4.5 mph7.2 kmh 28.73 in972.9 mb 0.00 in0.0 mm 0.00 in0.0 mm 0.12 in3.0 mm
02:33 AM 61.9°F16.6°C 59.0°F15.0°C 90% Calm Calm 5.8 mph9.3 kmh 28.73 in972.9 mb 0.00 in0.0 mm 0.00 in0.0 mm 0.12 in3.0 mm
02:32 AM 61.9°F16.6°C 59.0°F15.0°C 90% Calm Calm 5.8 mph9.3 kmh 28.73 in972.9 mb 0.00 in0.0 mm 0.00 in0.0 mm 0.12 in3.0 mm
02:31 AM 61.9°F16.6°C 59.0°F15.0°C 90% Calm Calm 5.8 mph9.3 kmh 28.73 in972.9 mb 0.00 in0.0 mm 0.00 in0.0 mm 0.12 in3.0 mm
02:30 AM 61.9°F16.6°C 59.0°F15.0°C 90% Calm Calm 5.8 mph9.3 kmh 28.73 in972.9 mb 0.00 in0.0 mm 0.00 in0.0 mm 0.12 in3.0 mm
02:29 AM 61.9°F16.6°C 58.7°F14.8°C 89% 3.0 mph WSW4.8 kmh WSW 5.8 mph9.3 kmh 28.73 in972.9 mb 0.00 in0.0 mm 0.00 in0.0 mm 0.12 in3.0 mm
02:28 AM 61.9°F16.6°C 58.7°F14.8°C 89% 3.0 mph WSW4.8 kmh WSW 5.8 mph9.3 kmh 28.73 in972.9 mb 0.00 in0.0 mm 0.00 in0.0 mm 0.12 in3.0 mm
02:27 AM 61.9°F16.6°C 58.7°F14.8°C 89% 3.0 mph WSW4.8 kmh WSW 5.8 mph9.3 kmh 28.73 in972.9 mb 0.00 in0.0 mm 0.00 in0.0 mm 0.12 in3.0 mm
02:26 AM 61.9°F16.6°C 58.7°F14.8°C 89% Calm Calm 5.8 mph9.3 kmh 28.73 in972.9 mb 0.00 in0.0 mm 0.00 in0.0 mm 0.12 in3.0 mm
02:25 AM 61.9°F16.6°C 58.7°F14.8°C 89% Calm Calm 5.8 mph9.3 kmh 28.73 in972.9 mb 0.00 in0.0 mm 0.00 in0.0 mm 0.12 in3.0 mm
02:24 AM 61.9°F16.6°C 58.7°F14.8°C 89% Calm Calm 5.8 mph9.3 kmh 28.73 in972.9 mb 0.00 in0.0 mm 0.00 in0.0 mm 0.12 in3.0 mm
02:23 AM 61.9°F16.6°C 58.7°F14.8°C 89% Calm Calm 5.8 mph9.3 kmh 28.73 in972.9 mb 0.00 in0.0 mm 0.00 in0.0 mm 0.12 in3.0 mm
02:22 AM 61.9°F16.6°C 58.7°F14.8°C 89% Calm Calm 4.5 mph7.2 kmh 28.73 in972.9 mb 0.00 in0.0 mm 0.00 in0.0 mm 0.12 in3.0 mm
02:21 AM 61.9°F16.6°C 58.7°F14.8°C 89% Calm Calm 4.5 mph7.2 kmh 28.73 in972.9 mb 0.00 in0.0 mm 0.00 in0.0 mm 0.12 in3.0 mm
02:20 AM 61.9°F16.6°C 58.7°F14.8°C 89% Calm Calm 4.5 mph7.2 kmh 28.73 in972.9 mb 0.00 in0.0 mm 0.00 in0.0 mm 0.12 in3.0 mm
02:19 AM 61.9°F16.6°C 58.7°F14.8°C 89% Calm Calm 4.5 mph7.2 kmh 28.73 in972.9 mb 0.00 in0.0 mm 0.00 in0.0 mm 0.12 in3.0 mm
02:18 AM 61.9°F16.6°C 58.7°F14.8°C 89% Calm Calm 4.5 mph7.2 kmh 28.73 in972.9 mb 0.00 in0.0 mm 0.00 in0.0 mm 0.12 in3.0 mm
02:17 AM 61.9°F16.6°C 58.7°F14.8°C 89% Calm Calm 5.2 mph8.4 kmh 28.73 in972.9 mb 0.00 in0.0 mm 0.00 in0.0 mm 0.12 in3.0 mm
02:16 AM 61.9°F16.6°C 58.7°F14.8°C 89% Calm Calm 5.2 mph8.4 kmh 28.73 in972.9 mb 0.00 in0.0 mm 0.00 in0.0 mm 0.12 in3.0 mm
02:15 AM 61.9°F16.6°C 58.7°F14.8°C 89% Calm Calm 5.2 mph8.4 kmh 28.73 in972.9 mb 0.00 in0.0 mm 0.00 in0.0 mm 0.12 in3.0 mm
02:14 AM 61.9°F16.6°C 58.7°F14.8°C 89% Calm Calm 5.2 mph8.4 kmh 28.73 in972.9 mb 0.00 in0.0 mm 0.00 in0.0 mm 0.12 in3.0 mm
02:13 AM 61.9°F16.6°C 58.7°F14.8°C 89% Calm Calm 5.2 mph8.4 kmh 28.73 in972.9 mb 0.00 in0.0 mm 0.00 in0.0 mm 0.12 in3.0 mm
02:12 AM 62.1°F16.7°C 58.9°F14.9°C 89% Calm Calm 5.2 mph8.4 kmh 28.73 in972.9 mb 0.00 in0.0 mm 0.00 in0.0 mm 0.12 in3.0 mm
02:11 AM 62.1°F16.7°C 58.5°F14.7°C 88% Calm Calm 5.2 mph8.4 kmh 28.73 in972.9 mb 0.00 in0.0 mm 0.00 in0.0 mm 0.12 in3.0 mm
02:10 AM 62.1°F16.7°C 58.5°F14.7°C 88% Calm Calm 5.2 mph8.4 kmh 28.73 in972.9 mb 0.00 in0.0 mm 0.00 in0.0 mm 0.12 in3.0 mm
02:09 AM 62.1°F16.7°C 58.5°F14.7°C 88% Calm Calm 5.2 mph8.4 kmh 28.73 in972.9 mb 0.00 in0.0 mm 0.00 in0.0 mm 0.12 in3.0 mm
02:08 AM 62.1°F16.7°C 58.2°F14.6°C 87% Calm Calm 5.2 mph8.4 kmh 28.73 in972.9 mb 0.00 in0.0 mm 0.00 in0.0 mm 0.12 in3.0 mm
02:07 AM 62.1°F16.7°C 58.2°F14.6°C 87% Calm Calm 5.2 mph8.4 kmh 28.73 in972.9 mb 0.00 in0.0 mm 0.00 in0.0 mm 0.12 in3.0 mm
02:06 AM 62.1°F16.7°C 58.2°F14.6°C 87% Calm Calm 5.2 mph8.4 kmh 28.73 in972.9 mb 0.00 in0.0 mm 0.00 in0.0 mm 0.12 in3.0 mm
02:05 AM 62.1°F16.7°C 58.2°F14.6°C 87% Calm Calm 5.2 mph8.4 kmh 28.73 in972.9 mb 0.00 in0.0 mm 0.00 in0.0 mm 0.12 in3.0 mm
02:04 AM 62.1°F16.7°C 58.2°F14.6°C 87% Calm Calm 5.2 mph8.4 kmh 28.73 in972.9 mb 0.00 in0.0 mm 0.00 in0.0 mm 0.12 in3.0 mm
02:03 AM 62.1°F16.7°C 58.2°F14.6°C 87% Calm Calm 5.2 mph8.4 kmh 28.73 in972.9 mb 0.00 in0.0 mm 0.00 in0.0 mm 0.12 in3.0 mm
02:02 AM 62.1°F16.7°C 58.2°F14.6°C 87% Calm Calm 5.2 mph8.4 kmh 28.73 in972.9 mb 0.00 in0.0 mm 0.00 in0.0 mm 0.12 in3.0 mm
02:01 AM 62.1°F16.7°C 58.2°F14.6°C 87% Calm Calm 9.1 mph14.6 kmh 28.73 in972.9 mb 0.00 in0.0 mm 0.00 in0.0 mm 0.12 in3.0 mm
02:00 AM 61.9°F16.6°C 58.0°F14.4°C 87% Calm Calm 9.1 mph14.6 kmh 28.73 in972.9 mb 0.00 in0.0 mm 0.00 in0.0 mm 0.12 in3.0 mm
01:59 AM 61.9°F16.6°C 58.0°F14.4°C 87% Calm Calm 9.1 mph14.6 kmh 28.73 in972.9 mb 0.00 in0.0 mm 0.00 in0.0 mm 0.12 in3.0 mm
01:58 AM 61.9°F16.6°C 58.0°F14.4°C 87% Calm Calm 9.1 mph14.6 kmh 28.73 in972.9 mb 0.00 in0.0 mm 0.00 in0.0 mm 0.12 in3.0 mm
01:57 AM 61.9°F16.6°C 58.0°F14.4°C 87% Calm Calm 9.1 mph14.6 kmh 28.73 in972.9 mb 0.00 in0.0 mm 0.00 in0.0 mm 0.12 in3.0 mm
01:56 AM 61.9°F16.6°C 58.0°F14.4°C 87% Calm Calm 9.1 mph14.6 kmh 28.73 in972.9 mb 0.00 in0.0 mm 0.00 in0.0 mm 0.12 in3.0 mm
01:55 AM 61.9°F16.6°C 58.0°F14.4°C 87% Calm Calm 9.1 mph14.6 kmh 28.73 in972.9 mb 0.00 in0.0 mm 0.00 in0.0 mm 0.12 in3.0 mm
01:54 AM 61.9°F16.6°C 58.0°F14.4°C 87% 4.1 mph SW6.6 kmh SW 9.1 mph14.6 kmh 28.73 in972.9 mb 0.00 in0.0 mm 0.00 in0.0 mm 0.12 in3.0 mm
01:53 AM 61.9°F16.6°C 58.0°F14.4°C 87% 3.9 mph SSW6.3 kmh SSW 9.1 mph14.6 kmh 28.73 in972.9 mb 0.00 in0.0 mm 0.00 in0.0 mm 0.12 in3.0 mm
01:52 AM 61.9°F16.6°C 58.0°F14.4°C 87% 3.8 mph S6.1 kmh S 9.1 mph14.6 kmh 28.73 in972.9 mb 0.00 in0.0 mm 0.00 in0.0 mm 0.12 in3.0 mm
01:51 AM 61.9°F16.6°C 58.0°F14.4°C 87% 4.3 mph S6.9 kmh S 9.1 mph14.6 kmh 28.73 in972.9 mb 0.00 in0.0 mm 0.00 in0.0 mm 0.12 in3.0 mm
01:50 AM 61.9°F16.6°C 58.0°F14.4°C 87% 4.3 mph S6.9 kmh S 9.1 mph14.6 kmh 28.73 in972.9 mb 0.00 in0.0 mm 0.00 in0.0 mm 0.12 in3.0 mm
01:49 AM 61.9°F16.6°C 58.0°F14.4°C 87% Calm Calm 9.1 mph14.6 kmh 28.73 in972.9 mb 0.00 in0.0 mm 0.00 in0.0 mm 0.12 in3.0 mm
01:48 AM 61.9°F16.6°C 58.0°F14.4°C 87% Calm Calm 11.0 mph17.7 kmh 28.73 in972.9 mb 0.00 in0.0 mm 0.00 in0.0 mm 0.12 in3.0 mm
01:47 AM 61.9°F16.6°C 58.0°F14.4°C 87% 3.0 mph S4.8 kmh S 11.0 mph17.7 kmh 28.73 in972.9 mb 0.00 in0.0 mm 0.00 in0.0 mm 0.12 in3.0 mm
01:46 AM 61.9°F16.6°C 58.0°F14.4°C 87% 3.2 mph S5.1 kmh S 11.0 mph17.7 kmh 28.73 in972.9 mb 0.00 in0.0 mm 0.00 in0.0 mm 0.12 in3.0 mm
01:45 AM 61.9°F16.6°C 58.0°F14.4°C 87% 3.7 mph S6.0 kmh S 11.0 mph17.7 kmh 28.73 in972.9 mb 0.00 in0.0 mm 0.00 in0.0 mm 0.12 in3.0 mm
01:44 AM 61.9°F16.6°C 58.0°F14.4°C 87% 3.8 mph S6.1 kmh S 11.0 mph17.7 kmh 28.73 in972.9 mb 0.00 in0.0 mm 0.00 in0.0 mm 0.12 in3.0 mm
01:43 AM 61.9°F16.6°C 58.0°F14.4°C 87% 4.0 mph S6.4 kmh S 11.0 mph17.7 kmh 28.73 in972.9 mb 0.00 in0.0 mm 0.00 in0.0 mm 0.12 in3.0 mm
01:41 AM 61.9°F16.6°C 58.0°F14.4°C 87% 5.1 mph SSW8.2 kmh SSW 11.0 mph17.7 kmh 28.73 in972.9 mb 0.00 in0.0 mm 0.00 in0.0 mm 0.12 in3.0 mm
01:40 AM 61.9°F16.6°C 58.0°F14.4°C 87% 5.5 mph SSW8.9 kmh SSW 11.7 mph18.8 kmh 28.73 in972.9 mb 0.00 in0.0 mm 0.00 in0.0 mm 0.12 in3.0 mm
01:39 AM 61.9°F16.6°C 58.0°F14.4°C 87% 4.8 mph S7.7 kmh S 11.7 mph18.8 kmh 28.73 in972.9 mb 0.00 in0.0 mm 0.00 in0.0 mm 0.12 in3.0 mm
01:38 AM 61.9°F16.6°C 58.0°F14.4°C 87% 4.8 mph S7.7 kmh S 11.7 mph18.8 kmh 28.73 in972.9 mb 0.00 in0.0 mm 0.00 in0.0 mm 0.12 in3.0 mm
01:37 AM 61.9°F16.6°C 58.0°F14.4°C 87% 4.8 mph S7.7 kmh S 11.7 mph18.8 kmh 28.73 in972.9 mb 0.00 in0.0 mm 0.00 in0.0 mm 0.12 in3.0 mm
01:36 AM 61.9°F16.6°C 58.0°F14.4°C 87% 3.9 mph S6.3 kmh S 11.7 mph18.8 kmh 28.73 in972.9 mb 0.00 in0.0 mm 0.00 in0.0 mm 0.12 in3.0 mm
01:35 AM 61.9°F16.6°C 58.0°F14.4°C 87% 3.4 mph SSE5.5 kmh SSE 11.7 mph18.8 kmh 28.73 in972.9 mb 0.00 in0.0 mm 0.00 in0.0 mm 0.12 in3.0 mm
01:34 AM 61.9°F16.6°C 58.0°F14.4°C 87% 3.5 mph SSE5.6 kmh SSE 11.7 mph18.8 kmh 28.73 in972.9 mb 0.00 in0.0 mm 0.00 in0.0 mm 0.12 in3.0 mm
01:33 AM 61.9°F16.6°C 58.0°F14.4°C 87% 3.9 mph S6.3 kmh S 11.7 mph18.8 kmh 28.73 in972.9 mb 0.00 in0.0 mm 0.00 in0.0 mm 0.12 in3.0 mm
01:32 AM 61.9°F16.6°C 58.0°F14.4°C 87% 4.8 mph S7.7 kmh S 11.7 mph18.8 kmh 28.73 in972.9 mb 0.00 in0.0 mm 0.00 in0.0 mm 0.12 in3.0 mm
01:31 AM 61.9°F16.6°C 58.0°F14.4°C 87% 5.6 mph S9.0 kmh S 11.7 mph18.8 kmh 28.73 in972.9 mb 0.00 in0.0 mm 0.00 in0.0 mm 0.12 in3.0 mm
01:30 AM 61.9°F16.6°C 58.0°F14.4°C 87% 5.2 mph S8.4 kmh S 11.7 mph18.8 kmh 28.73 in972.9 mb 0.00 in0.0 mm 0.00 in0.0 mm 0.12 in3.0 mm
01:29 AM 61.9°F16.6°C 58.0°F14.4°C 87% 3.4 mph SSE5.5 kmh SSE 11.7 mph18.8 kmh 28.73 in972.9 mb 0.00 in0.0 mm 0.00 in0.0 mm 0.12 in3.0 mm
01:28 AM 61.9°F16.6°C 58.0°F14.4°C 87% 4.0 mph SSE6.4 kmh SSE 11.7 mph18.8 kmh 28.73 in972.9 mb 0.04 in1.0 mm 0.00 in0.0 mm 0.12 in3.0 mm
01:27 AM 61.9°F16.6°C 58.0°F14.4°C 87% 4.7 mph S7.6 kmh S 11.7 mph18.8 kmh 28.73 in972.9 mb 0.04 in1.0 mm 0.00 in0.0 mm 0.12 in3.0 mm
01:26 AM 61.9°F16.6°C 58.0°F14.4°C 87% 4.6 mph SSW7.4 kmh SSW 11.7 mph18.8 kmh 28.73 in972.9 mb 0.04 in1.0 mm 0.00 in0.0 mm 0.12 in3.0 mm
01:25 AM 61.9°F16.6°C 58.0°F14.4°C 87% 5.1 mph SSW8.2 kmh SSW 11.7 mph18.8 kmh 28.73 in972.9 mb 0.04 in1.0 mm 0.00 in0.0 mm 0.12 in3.0 mm
01:24 AM 61.9°F16.6°C 58.0°F14.4°C 87% 5.5 mph S8.9 kmh S 11.7 mph18.8 kmh 28.73 in972.9 mb 0.04 in1.0 mm 0.00 in0.0 mm 0.12 in3.0 mm
01:23 AM 61.9°F16.6°C 58.0°F14.4°C 87% 4.4 mph S7.1 kmh S 11.7 mph18.8 kmh 28.73 in972.9 mb 0.04 in1.0 mm 0.00 in0.0 mm 0.12 in3.0 mm
01:22 AM 61.9°F16.6°C 58.0°F14.4°C 87% 4.7 mph S7.6 kmh S 11.7 mph18.8 kmh 28.73 in972.9 mb 0.04 in1.0 mm 0.00 in0.0 mm 0.12 in3.0 mm
01:21 AM 61.9°F16.6°C 58.0°F14.4°C 87% 6.1 mph SSW9.8 kmh SSW 12.6 mph20.3 kmh 28.73 in972.9 mb 0.04 in1.0 mm 0.00 in0.0 mm 0.12 in3.0 mm
01:20 AM 61.9°F16.6°C 58.0°F14.4°C 87% 6.8 mph SW10.9 kmh SW 15.9 mph25.6 kmh 28.73 in972.9 mb 0.04 in1.0 mm 0.00 in0.0 mm 0.12 in3.0 mm
01:19 AM 61.9°F16.6°C 58.0°F14.4°C 87% 5.7 mph S9.2 kmh S 20.4 mph32.8 kmh 28.73 in972.9 mb 0.04 in1.0 mm 0.00 in0.0 mm 0.12 in3.0 mm
01:18 AM 61.9°F16.6°C 58.0°F14.4°C 87% 4.7 mph S7.6 kmh S 20.4 mph32.8 kmh 28.73 in972.9 mb 0.04 in1.0 mm 0.00 in0.0 mm 0.12 in3.0 mm
01:17 AM 61.9°F16.6°C 58.0°F14.4°C 87% 3.5 mph S5.6 kmh S 20.4 mph32.8 kmh 28.73 in972.9 mb 0.04 in1.0 mm 0.00 in0.0 mm 0.12 in3.0 mm
01:16 AM 61.9°F16.6°C 58.0°F14.4°C 87% 3.0 mph S4.8 kmh S 20.4 mph32.8 kmh 28.73 in972.9 mb 0.04 in1.0 mm 0.00 in0.0 mm 0.12 in3.0 mm
01:15 AM 61.9°F16.6°C 58.0°F14.4°C 87% 3.0 mph S4.8 kmh S 20.4 mph32.8 kmh 28.73 in972.9 mb 0.04 in1.0 mm 0.00 in0.0 mm 0.12 in3.0 mm
01:14 AM 61.9°F16.6°C 57.6°F14.2°C 86% 3.8 mph SSW6.1 kmh SSW 20.4 mph32.8 kmh 28.73 in972.9 mb 0.04 in1.0 mm 0.00 in0.0 mm 0.12 in3.0 mm
01:13 AM 61.9°F16.6°C 57.6°F14.2°C 86% 4.1 mph SW6.6 kmh SW 20.4 mph32.8 kmh 28.73 in972.9 mb 0.04 in1.0 mm 0.00 in0.0 mm 0.12 in3.0 mm
01:12 AM 61.9°F16.6°C 57.6°F14.2°C 86% 9.4 mph S15.1 kmh S 20.4 mph32.8 kmh 28.73 in972.9 mb 0.04 in1.0 mm 0.00 in0.0 mm 0.12 in3.0 mm
01:11 AM 61.9°F16.6°C 57.6°F14.2°C 86% 9.8 mph SSE15.8 kmh SSE 20.4 mph32.8 kmh 28.73 in972.9 mb 0.04 in1.0 mm 0.00 in0.0 mm 0.12 in3.0 mm
01:10 AM 61.9°F16.6°C 57.6°F14.2°C 86% 7.8 mph SSE12.6 kmh SSE 20.4 mph32.8 kmh 28.73 in972.9 mb 0.04 in1.0 mm 0.00 in0.0 mm 0.12 in3.0 mm
01:09 AM 61.9°F16.6°C 57.6°F14.2°C 86% 5.2 mph SSE8.4 kmh SSE 19.1 mph30.7 kmh 28.73 in972.9 mb 0.04 in1.0 mm 0.00 in0.0 mm 0.12 in3.0 mm
01:08 AM 61.9°F16.6°C 57.6°F14.2°C 86% 3.5 mph S5.6 kmh S 19.1 mph30.7 kmh 28.73 in972.9 mb 0.04 in1.0 mm 0.00 in0.0 mm 0.12 in3.0 mm
01:07 AM 61.9°F16.6°C 57.6°F14.2°C 86% 4.1 mph S6.6 kmh S 19.1 mph30.7 kmh 28.73 in972.9 mb 0.12 in3.0 mm 0.00 in0.0 mm 0.12 in3.0 mm
01:06 AM 61.7°F16.5°C 57.4°F14.1°C 86% 7.6 mph S12.2 kmh S 19.1 mph30.7 kmh 28.73 in972.9 mb 0.12 in3.0 mm 0.00 in0.0 mm 0.12 in3.0 mm
01:05 AM 61.7°F16.5°C 57.4°F14.1°C 86% 8.5 mph SSE13.7 kmh SSE 19.1 mph30.7 kmh 28.70 in971.9 mb 0.12 in3.0 mm 0.00 in0.0 mm 0.12 in3.0 mm
01:04 AM 61.7°F16.5°C 57.4°F14.1°C 86% 10.4 mph SSE16.7 kmh SSE 19.1 mph30.7 kmh 28.70 in971.9 mb 0.12 in3.0 mm 0.00 in0.0 mm 0.12 in3.0 mm
01:03 AM 61.9°F16.6°C 57.6°F14.2°C 86% 11.0 mph S17.7 kmh S 19.1 mph30.7 kmh 28.70 in971.9 mb 0.12 in3.0 mm 0.00 in0.0 mm 0.12 in3.0 mm
01:02 AM 61.7°F16.5°C 57.4°F14.1°C 86% 8.7 mph SSE14.0 kmh SSE 19.1 mph30.7 kmh 28.70 in971.9 mb 0.12 in3.0 mm 0.00 in0.0 mm 0.12 in3.0 mm
01:01 AM 61.7°F16.5°C 57.4°F14.1°C 86% 7.6 mph SSE12.2 kmh SSE 19.1 mph30.7 kmh 28.70 in971.9 mb 0.12 in3.0 mm 0.00 in0.0 mm 0.12 in3.0 mm
01:00 AM 61.7°F16.5°C 57.4°F14.1°C 86% 9.1 mph SSE14.6 kmh SSE 18.6 mph29.9 kmh 28.70 in971.9 mb 0.12 in3.0 mm 0.00 in0.0 mm 0.12 in3.0 mm
12:59 AM 61.7°F16.5°C 57.4°F14.1°C 86% 7.7 mph S12.4 kmh S 20.4 mph32.8 kmh 28.70 in971.9 mb 0.12 in3.0 mm 0.00 in0.0 mm 0.12 in3.0 mm
12:58 AM 61.7°F16.5°C 57.4°F14.1°C 86% 7.8 mph SSE12.6 kmh SSE 20.4 mph32.8 kmh 28.70 in971.9 mb 0.12 in3.0 mm 0.00 in0.0 mm 0.12 in3.0 mm
12:57 AM 61.7°F16.5°C 57.4°F14.1°C 86% 9.3 mph SSE15.0 kmh SSE 20.4 mph32.8 kmh 28.70 in971.9 mb 0.12 in3.0 mm 0.00 in0.0 mm 0.12 in3.0 mm
12:56 AM 61.7°F16.5°C 57.4°F14.1°C 86% 9.5 mph SSE15.3 kmh SSE 20.4 mph32.8 kmh 28.70 in971.9 mb 0.12 in3.0 mm 0.00 in0.0 mm 0.12 in3.0 mm
12:55 AM 61.7°F16.5°C 57.4°F14.1°C 86% 11.1 mph SSE17.9 kmh SSE 20.4 mph32.8 kmh 28.70 in971.9 mb 0.12 in3.0 mm 0.00 in0.0 mm 0.12 in3.0 mm
12:54 AM 61.7°F16.5°C 57.4°F14.1°C 86% 11.7 mph SSE18.8 kmh SSE 20.4 mph32.8 kmh 28.70 in971.9 mb 0.12 in3.0 mm 0.00 in0.0 mm 0.12 in3.0 mm
12:53 AM 61.7°F16.5°C 57.4°F14.1°C 86% 11.3 mph SSE18.2 kmh SSE 20.4 mph32.8 kmh 28.70 in971.9 mb 0.12 in3.0 mm 0.00 in0.0 mm 0.12 in3.0 mm
12:52 AM 61.7°F16.5°C 57.1°F13.9°C 85% 11.2 mph SSE18.0 kmh SSE 20.4 mph32.8 kmh 28.70 in971.9 mb 0.12 in3.0 mm 0.00 in0.0 mm 0.12 in3.0 mm
12:51 AM 61.7°F16.5°C 57.1°F13.9°C 85% 10.4 mph SSE16.7 kmh SSE 20.4 mph32.8 kmh 28.70 in971.9 mb 0.12 in3.0 mm 0.00 in0.0 mm 0.12 in3.0 mm
12:50 AM 61.7°F16.5°C 57.4°F14.1°C 86% 11.9 mph SE19.2 kmh SE 20.4 mph32.8 kmh 28.70 in971.9 mb 0.17 in4.3 mm 0.00 in0.0 mm 0.12 in3.0 mm
12:49 AM 61.7°F16.5°C 57.4°F14.1°C 86% 13.0 mph SE20.9 kmh SE 20.4 mph32.8 kmh 28.70 in971.9 mb 0.17 in4.3 mm 0.00 in0.0 mm 0.12 in3.0 mm
12:48 AM 61.7°F16.5°C 57.1°F13.9°C 85% 11.7 mph SE18.8 kmh SE 20.4 mph32.8 kmh 28.70 in971.9 mb 0.17 in4.3 mm 0.00 in0.0 mm 0.12 in3.0 mm
12:47 AM 61.5°F16.4°C 56.9°F13.8°C 85% 10.1 mph SE16.3 kmh SE 20.4 mph32.8 kmh 28.70 in971.9 mb 0.17 in4.3 mm 0.00 in0.0 mm 0.12 in3.0 mm
12:46 AM 61.5°F16.4°C 56.9°F13.8°C 85% 10.2 mph SE16.4 kmh SE 20.4 mph32.8 kmh 28.70 in971.9 mb 0.17 in4.3 mm 0.00 in0.0 mm 0.12 in3.0 mm
12:45 AM 61.5°F16.4°C 56.9°F13.8°C 85% 11.5 mph SSE18.5 kmh SSE 20.4 mph32.8 kmh 28.70 in971.9 mb 0.17 in4.3 mm 0.00 in0.0 mm 0.12 in3.0 mm
12:44 AM 61.5°F16.4°C 56.9°F13.8°C 85% 11.2 mph SSE18.0 kmh SSE 20.4 mph32.8 kmh 28.70 in971.9 mb 0.17 in4.3 mm 0.00 in0.0 mm 0.12 in3.0 mm
12:43 AM 61.5°F16.4°C 56.9°F13.8°C 85% 9.5 mph SSE15.3 kmh SSE 20.4 mph32.8 kmh 28.70 in971.9 mb 0.17 in4.3 mm 0.00 in0.0 mm 0.12 in3.0 mm
12:42 AM 61.5°F16.4°C 56.9°F13.8°C 85% 9.8 mph SSE15.8 kmh SSE 20.4 mph32.8 kmh 28.70 in971.9 mb 0.17 in4.3 mm 0.00 in0.0 mm 0.12 in3.0 mm
12:41 AM 61.5°F16.4°C 56.9°F13.8°C 85% 10.4 mph SSE16.7 kmh SSE 20.4 mph32.8 kmh 28.70 in971.9 mb 0.17 in4.3 mm 0.00 in0.0 mm 0.12 in3.0 mm
12:40 AM 61.5°F16.4°C 56.9°F13.8°C 85% 10.0 mph SSE16.1 kmh SSE 15.2 mph24.5 kmh 28.70 in971.9 mb 0.17 in4.3 mm 0.00 in0.0 mm 0.12 in3.0 mm
12:39 AM 61.5°F16.4°C 56.9°F13.8°C 85% 9.4 mph SSE15.1 kmh SSE 15.2 mph24.5 kmh 28.70 in971.9 mb 0.21 in5.3 mm 0.00 in0.0 mm 0.12 in3.0 mm
12:38 AM 61.5°F16.4°C 56.9°F13.8°C 85% 10.2 mph SSE16.4 kmh SSE 15.2 mph24.5 kmh 28.70 in971.9 mb 0.21 in5.3 mm 0.00 in0.0 mm 0.12 in3.0 mm
12:37 AM 61.5°F16.4°C 56.9°F13.8°C 85% 8.9 mph SSE14.3 kmh SSE 15.2 mph24.5 kmh 28.70 in971.9 mb 0.21 in5.3 mm 0.00 in0.0 mm 0.12 in3.0 mm
12:36 AM 61.5°F16.4°C 56.9°F13.8°C 85% 5.3 mph S8.5 kmh S 14.6 mph23.5 kmh 28.70 in971.9 mb 0.21 in5.3 mm 0.00 in0.0 mm 0.12 in3.0 mm
12:35 AM 61.5°F16.4°C 56.9°F13.8°C 85% 6.2 mph S10.0 kmh S 14.6 mph23.5 kmh 28.70 in971.9 mb 0.21 in5.3 mm 0.00 in0.0 mm 0.12 in3.0 mm
12:34 AM 61.5°F16.4°C 56.9°F13.8°C 85% 6.1 mph S9.8 kmh S 15.9 mph25.6 kmh 28.70 in971.9 mb 0.21 in5.3 mm 0.00 in0.0 mm 0.12 in3.0 mm
12:33 AM 61.5°F16.4°C 56.9°F13.8°C 85% 6.4 mph S10.3 kmh S 15.9 mph25.6 kmh 28.70 in971.9 mb 0.21 in5.3 mm 0.00 in0.0 mm 0.12 in3.0 mm
12:32 AM 61.5°F16.4°C 56.9°F13.8°C 85% 7.8 mph S12.6 kmh S 15.9 mph25.6 kmh 28.70 in971.9 mb 0.21 in5.3 mm 0.00 in0.0 mm 0.12 in3.0 mm
12:31 AM 61.5°F16.4°C 56.9°F13.8°C 85% 8.5 mph SSE13.7 kmh SSE 17.8 mph28.6 kmh 28.70 in971.9 mb 0.21 in5.3 mm 0.00 in0.0 mm 0.12 in3.0 mm
12:30 AM 61.3°F16.3°C 56.7°F13.7°C 85% 8.8 mph SE14.2 kmh SE 17.8 mph28.6 kmh 28.70 in971.9 mb 0.21 in5.3 mm 0.00 in0.0 mm 0.12 in3.0 mm
12:29 AM 61.3°F16.3°C 56.7°F13.7°C 85% 7.9 mph SE12.7 kmh SE 17.8 mph28.6 kmh 28.70 in971.9 mb 0.21 in5.3 mm 2.40 in61.0 mm 0.12 in3.0 mm
12:28 AM 61.3°F16.3°C 56.7°F13.7°C 85% 7.9 mph SE12.7 kmh SE 17.8 mph28.6 kmh 28.70 in971.9 mb 0.17 in4.3 mm 0.00 in0.0 mm 0.08 in2.0 mm
12:27 AM 61.3°F16.3°C 56.7°F13.7°C 85% 9.4 mph SE15.1 kmh SE 17.8 mph28.6 kmh 28.70 in971.9 mb 0.17 in4.3 mm 0.00 in0.0 mm 0.08 in2.0 mm
12:26 AM 61.3°F16.3°C 56.7°F13.7°C 85% 10.2 mph SE16.4 kmh SE 19.7 mph31.7 kmh 28.70 in971.9 mb 0.17 in4.3 mm 0.00 in0.0 mm 0.08 in2.0 mm
12:25 AM 61.3°F16.3°C 56.7°F13.7°C 85% 9.1 mph SE14.6 kmh SE 19.7 mph31.7 kmh 28.70 in971.9 mb 0.17 in4.3 mm 0.00 in0.0 mm 0.08 in2.0 mm
12:24 AM 61.3°F16.3°C 56.7°F13.7°C 85% 7.3 mph SSE11.7 kmh SSE 19.7 mph31.7 kmh 28.70 in971.9 mb 0.17 in4.3 mm 0.00 in0.0 mm 0.08 in2.0 mm
12:23 AM 61.3°F16.3°C 56.7°F13.7°C 85% 6.1 mph S9.8 kmh S 19.7 mph31.7 kmh 28.70 in971.9 mb 0.17 in4.3 mm 0.00 in0.0 mm 0.08 in2.0 mm
12:22 AM 61.3°F16.3°C 57.1°F13.9°C 86% 4.8 mph S7.7 kmh S 19.7 mph31.7 kmh 28.70 in971.9 mb 0.17 in4.3 mm 0.00 in0.0 mm 0.08 in2.0 mm
12:21 AM 61.3°F16.3°C 57.1°F13.9°C 86% 6.1 mph S9.8 kmh S 19.7 mph31.7 kmh 28.70 in971.9 mb 0.17 in4.3 mm 0.00 in0.0 mm 0.08 in2.0 mm
12:20 AM 61.3°F16.3°C 57.1°F13.9°C 86% 8.2 mph S13.2 kmh S 19.7 mph31.7 kmh 28.67 in970.9 mb 0.17 in4.3 mm 0.00 in0.0 mm 0.08 in2.0 mm
12:19 AM 61.5°F16.4°C 57.3°F14.1°C 86% 8.9 mph S14.3 kmh S 19.7 mph31.7 kmh 28.67 in970.9 mb 0.17 in4.3 mm 0.00 in0.0 mm 0.08 in2.0 mm
12:18 AM 61.3°F16.3°C 56.7°F13.7°C 85% 8.9 mph S14.3 kmh S 19.7 mph31.7 kmh 28.67 in970.9 mb 0.17 in4.3 mm 0.00 in0.0 mm 0.08 in2.0 mm
12:17 AM 61.3°F16.3°C 56.3°F13.5°C 84% 8.6 mph SSE13.8 kmh SSE 19.7 mph31.7 kmh 28.67 in970.9 mb 0.17 in4.3 mm 0.00 in0.0 mm 0.08 in2.0 mm
12:16 AM 61.2°F16.2°C 56.2°F13.4°C 84% 8.0 mph SSE12.9 kmh SSE 19.1 mph30.7 kmh 28.67 in970.9 mb 0.17 in4.3 mm 0.00 in0.0 mm 0.08 in2.0 mm
12:15 AM 61.2°F16.2°C 56.2°F13.4°C 84% 9.8 mph SSE15.8 kmh SSE 19.1 mph30.7 kmh 28.67 in970.9 mb 0.17 in4.3 mm 0.00 in0.0 mm 0.08 in2.0 mm
12:14 AM 61.2°F16.2°C 56.2°F13.4°C 84% 12.3 mph SSE19.8 kmh SSE 25.2 mph40.6 kmh 28.67 in970.9 mb 0.17 in4.3 mm 0.00 in0.0 mm 0.08 in2.0 mm
12:13 AM 61.2°F16.2°C 56.2°F13.4°C 84% 13.0 mph SSE20.9 kmh SSE 25.2 mph40.6 kmh 28.67 in970.9 mb 0.17 in4.3 mm 0.00 in0.0 mm 0.08 in2.0 mm
12:12 AM 61.2°F16.2°C 56.2°F13.4°C 84% 12.6 mph SE20.3 kmh SE 25.2 mph40.6 kmh 28.67 in970.9 mb 0.17 in4.3 mm 0.00 in0.0 mm 0.08 in2.0 mm
12:11 AM 61.2°F16.2°C 56.2°F13.4°C 84% 12.5 mph SE20.1 kmh SE 25.2 mph40.6 kmh 28.67 in970.9 mb 0.21 in5.3 mm 0.00 in0.0 mm 0.08 in2.0 mm
12:10 AM 61.2°F16.2°C 56.2°F13.4°C 84% 12.7 mph SSE20.4 kmh SSE 25.2 mph40.6 kmh 28.67 in970.9 mb 0.21 in5.3 mm 0.00 in0.0 mm 0.08 in2.0 mm
12:09 AM 61.2°F16.2°C 56.2°F13.4°C 84% 13.0 mph SSE20.9 kmh SSE 25.2 mph40.6 kmh 28.67 in970.9 mb 0.21 in5.3 mm 0.00 in0.0 mm 0.08 in2.0 mm
12:08 AM 61.2°F16.2°C 55.8°F13.2°C 82% 14.8 mph SE23.8 kmh SE 25.2 mph40.6 kmh 28.67 in970.9 mb 0.21 in5.3 mm 0.00 in0.0 mm 0.08 in2.0 mm
12:07 AM 61.2°F16.2°C 55.8°F13.2°C 82% 16.1 mph SSE25.9 kmh SSE 25.2 mph40.6 kmh 28.67 in970.9 mb 0.21 in5.3 mm 5.40 in137.2 mm 0.08 in2.0 mm
12:06 AM 61.2°F16.2°C 55.8°F13.2°C 82% 15.2 mph SSE24.5 kmh SSE 25.2 mph40.6 kmh 28.67 in970.9 mb 0.12 in3.0 mm 0.00 in0.0 mm 0.12 in3.0 mm
12:05 AM 61.2°F16.2°C 55.8°F13.2°C 82% 12.6 mph SSE20.3 kmh SSE 25.2 mph40.6 kmh 28.73 in972.9 mb 0.12 in3.0 mm 0.00 in0.0 mm 0.12 in3.0 mm
12:04 AM 61.2°F16.2°C 55.8°F13.2°C 82% 12.3 mph SSE19.8 kmh SSE 21.0 mph33.8 kmh 28.73 in972.9 mb 0.12 in3.0 mm 0.00 in0.0 mm 0.12 in3.0 mm
12:03 AM 61.2°F16.2°C 55.8°F13.2°C 82% 12.6 mph SSE20.3 kmh SSE 21.0 mph33.8 kmh 28.73 in972.9 mb 0.12 in3.0 mm 0.00 in0.0 mm 0.12 in3.0 mm
12:02 AM 61.2°F16.2°C 55.5°F13.1°C 81% 12.1 mph SE19.5 kmh SE 21.0 mph33.8 kmh 28.73 in972.9 mb 0.12 in3.0 mm 0.00 in0.0 mm 0.12 in3.0 mm
12:01 AM 61.2°F16.2°C 55.5°F13.1°C 81% 12.7 mph SE20.4 kmh SE 21.0 mph33.8 kmh 28.73 in972.9 mb 0.12 in3.0 mm 0.00 in0.0 mm 0.12 in3.0 mm
12:00 AM 61.2°F16.2°C 55.5°F13.1°C 81% 12.5 mph SE20.1 kmh SE 21.0 mph33.8 kmh 28.73 in972.9 mb 0.12 in3.0 mm 0.00 in0.0 mm 0.12 in3.0 mm